Time;durP1;ratioP1;P1;durP2;ratioP2;P2;SDS_P1;SDS_P2;PMS_P1;PMS_P2;Temp;Humidity;BMP_temperature;BMP_pressure;BME280_temperature;BME280_humidity;BME280_pressure;Samples;Min_cycle;Max_cycle;Signal;HPM_P1;HPM_P2
2023/06/09 00:02:24;;;;;;;10.23;7.40;;;17.40;19.50;;;;;;5050830;28;21015;-65
2023/06/09 00:04:52;;;;;;;10.27;8.63;;;17.40;19.40;;;;;;5047487;28;20469;-65
2023/06/09 00:07:19;;;;;;;11.53;8.20;;;17.40;19.70;;;;;;5051829;28;20488;-65
2023/06/09 00:09:46;;;;;;;10.23;8.80;;;17.40;19.50;;;;;;5044790;28;20511;-65
2023/06/09 00:12:13;;;;;;;11.47;8.17;;;17.30;19.80;;;;;;5050008;28;20472;-65
2023/06/09 00:14:41;;;;;;;10.53;7.50;;;17.30;19.80;;;;;;5062005;22;20473;-68
2023/06/09 00:17:08;;;;;;;10.67;7.70;;;17.30;19.70;;;;;;5051499;28;20629;-67
2023/06/09 00:19:35;;;;;;;11.10;9.37;;;17.30;19.50;;;;;;5047999;28;20489;-67
2023/06/09 00:22:05;;;;;;;14.77;10.70;;;17.30;19.70;;;;;;5046931;28;20485;-67
2023/06/09 00:24:31;;;;;;;14.57;11.40;;;17.20;19.80;;;;;;5050165;28;20466;-67
2023/06/09 00:26:58;;;;;;;14.70;11.50;;;17.20;19.90;;;;;;5049429;28;20497;-67
2023/06/09 00:29:25;;;;;;;15.50;12.20;;;17.20;20.10;;;;;;5049677;28;20470;-67
2023/06/09 00:31:51;;;;;;;13.33;10.43;;;17.10;20.90;;;;;;5046680;28;20481;-67
2023/06/09 00:34:18;;;;;;;14.60;11.60;;;17.10;20.80;;;;;;5045029;28;20987;-67
2023/06/09 00:36:45;;;;;;;12.37;10.43;;;17.10;20.80;;;;;;5044577;28;20499;-67
2023/06/09 00:39:13;;;;;;;13.13;10.53;;;17.00;20.50;;;;;;5045628;28;20469;-67
2023/06/09 00:41:41;;;;;;;12.50;9.67;;;17.00;20.70;;;;;;5038148;28;21028;-67
2023/06/09 00:44:08;;;;;;;11.07;9.13;;;17.00;20.60;;;;;;5047506;28;20468;-67
2023/06/09 00:46:35;;;;;;;13.20;9.50;;;17.00;20.40;;;;;;5046301;28;20569;-67
2023/06/09 00:49:02;;;;;;;11.17;8.63;;;17.00;20.70;;;;;;5045398;28;21006;-69
2023/06/09 00:51:30;;;;;;;13.07;9.17;;;17.00;20.70;;;;;;5045257;28;20973;-67
2023/06/09 00:53:58;;;;;;;12.63;10.20;;;17.00;20.50;;;;;;5046314;28;22265;-68
2023/06/09 00:56:26;;;;;;;11.33;8.67;;;17.00;20.70;;;;;;5043485;28;20481;-67
2023/06/09 00:58:54;;;;;;;13.03;8.97;;;16.90;20.50;;;;;;5041538;28;20859;-67
2023/06/09 01:01:20;;;;;;;11.57;9.60;;;16.90;21.30;;;;;;5044198;28;20482;-67
2023/06/09 01:03:48;;;;;;;12.40;10.00;;;16.80;20.60;;;;;;5035611;28;20482;-67
2023/06/09 01:06:23;;;;;;;11.47;8.70;;;16.80;20.80;;;;;;5043101;28;20482;-67
2023/06/09 01:08:58;;;;;;;10.83;8.40;;;16.80;21.60;;;;;;5044975;28;20549;-67
2023/06/09 01:11:30;;;;;;;10.60;9.00;;;16.70;21.20;;;;;;5043365;28;20456;-68
2023/06/09 01:14:03;;;;;;;13.00;9.53;;;16.70;21.40;;;;;;5042949;28;20976;-67
2023/06/09 01:16:36;;;;;;;10.97;8.30;;;16.60;21.10;;;;;;5043060;28;20493;-67
2023/06/09 01:19:08;;;;;;;11.00;8.80;;;16.60;21.40;;;;;;5039082;28;20470;-67
2023/06/09 01:21:44;;;;;;;13.00;9.90;;;16.50;21.50;;;;;;5043580;28;20461;-67
2023/06/09 01:24:19;;;;;;;11.63;8.90;;;16.50;21.70;;;;;;5047188;28;20477;-67
2023/06/09 01:26:50;;;;;;;12.03;8.87;;;16.50;21.90;;;;;;5043989;28;20565;-67
2023/06/09 01:29:19;;;;;;;13.27;8.57;;;16.50;22.00;;;;;;5037758;28;20977;-67
2023/06/09 01:31:47;;;;;;;11.33;9.33;;;16.50;22.10;;;;;;5045345;28;20865;-67
2023/06/09 01:34:14;;;;;;;11.50;9.53;;;16.40;22.70;;;;;;5044264;28;20461;-67
2023/06/09 01:36:42;;;;;;;11.13;9.10;;;16.40;23.20;;;;;;5043952;28;20481;-67
2023/06/09 01:39:10;;;;;;;9.73;8.00;;;16.30;23.30;;;;;;5043282;28;20874;-67
2023/06/09 01:41:37;;;;;;;9.93;8.33;;;16.30;23.40;;;;;;5045802;28;21770;-67
2023/06/09 01:44:05;;;;;;;11.27;9.47;;;16.30;23.30;;;;;;5043093;28;20475;-67
2023/06/09 01:46:32;;;;;;;11.63;9.33;;;16.30;23.30;;;;;;5043923;28;20486;-67
2023/06/09 01:49:06;;;;;;;14.03;9.93;;;16.20;23.50;;;;;;5044708;28;20462;-67
2023/06/09 01:51:40;;;;;;;11.30;8.50;;;16.20;23.80;;;;;;5045507;28;20493;-67
2023/06/09 01:54:10;;;;;;;14.93;9.93;;;16.20;23.70;;;;;;5044614;28;20463;-67
2023/06/09 01:56:43;;;;;;;13.30;9.17;;;16.10;23.80;;;;;;5042561;28;20607;-67
2023/06/09 01:59:16;;;;;;;11.73;8.93;;;16.10;24.20;;;;;;5045131;28;20974;-67
2023/06/09 02:01:45;;;;;;;12.00;9.73;;;16.00;24.30;;;;;;5043736;28;21006;-67
2023/06/09 02:04:14;;;;;;;10.77;8.57;;;16.00;24.50;;;;;;5047049;28;21016;-67
2023/06/09 02:06:41;;;;;;;12.20;9.23;;;16.00;24.10;;;;;;5044154;28;20486;-67
2023/06/09 02:09:09;;;;;;;11.80;8.50;;;16.00;24.30;;;;;;5043650;28;20474;-67
2023/06/09 02:11:37;;;;;;;11.80;9.80;;;16.00;24.20;;;;;;5038458;28;20516;-67
2023/06/09 02:14:04;;;;;;;12.20;9.33;;;15.90;24.20;;;;;;5046804;28;20455;-67
2023/06/09 02:16:32;;;;;;;12.23;9.87;;;15.90;24.30;;;;;;5042151;28;20485;-67
2023/06/09 02:18:58;;;;;;;11.87;9.57;;;15.90;24.30;;;;;;5043011;28;20470;-67
2023/06/09 02:21:25;;;;;;;12.83;9.23;;;15.80;24.50;;;;;;5044979;28;20954;-67
2023/06/09 02:23:52;;;;;;;11.10;9.03;;;15.80;24.60;;;;;;5044795;28;20485;-67
2023/06/09 02:26:18;;;;;;;12.00;9.40;;;15.70;24.80;;;;;;5041031;28;20494;-67
2023/06/09 02:28:47;;;;;;;12.40;9.70;;;15.70;24.70;;;;;;5040553;28;20481;-67
2023/06/09 02:31:13;;;;;;;12.77;10.63;;;15.70;24.80;;;;;;5040474;28;20498;-67
2023/06/09 02:33:41;;;;;;;13.23;10.50;;;15.60;24.60;;;;;;5047127;28;20930;-67
2023/06/09 02:36:08;;;;;;;12.37;10.37;;;15.70;24.70;;;;;;5042404;28;20470;-67
2023/06/09 02:38:35;;;;;;;13.40;9.97;;;15.60;24.90;;;;;;5044509;28;20454;-67
2023/06/09 02:41:02;;;;;;;12.50;10.40;;;15.60;24.50;;;;;;5038596;28;20463;-67
2023/06/09 02:43:29;;;;;;;12.93;9.60;;;15.60;24.90;;;;;;5037212;28;20479;-67
2023/06/09 02:45:55;;;;;;;15.07;9.90;;;15.60;24.80;;;;;;5038051;28;20481;-67
2023/06/09 02:48:22;;;;;;;13.03;9.90;;;15.50;24.80;;;;;;5040087;28;20466;-67
2023/06/09 02:50:50;;;;;;;12.93;10.17;;;15.50;25.00;;;;;;5044093;28;20921;-67
2023/06/09 02:53:17;;;;;;;13.60;11.47;;;15.50;25.20;;;;;;5037765;28;20849;-67
2023/06/09 02:55:44;;;;;;;15.60;11.23;;;15.50;25.60;;;;;;5041473;28;20960;-67
2023/06/09 02:58:14;;;;;;;13.60;11.50;;;15.40;25.50;;;;;;5040527;28;20531;-67
2023/06/09 03:00:41;;;;;;;15.43;12.30;;;15.40;25.20;;;;;;5042014;28;20504;-67
2023/06/09 03:03:08;;;;;;;14.30;10.97;;;15.40;25.50;;;;;;5044838;28;20474;-67
2023/06/09 03:05:35;;;;;;;13.40;11.13;;;15.40;25.40;;;;;;5041630;28;20509;-67
2023/06/09 03:08:03;;;;;;;13.93;11.00;;;15.40;25.60;;;;;;5040200;28;20482;-67
2023/06/09 03:10:30;;;;;;;13.77;11.17;;;15.40;25.60;;;;;;5039740;28;20461;-67
2023/06/09 03:12:57;;;;;;;13.23;11.00;;;15.40;26.10;;;;;;5042042;28;20461;-67
2023/06/09 03:15:24;;;;;;;13.33;10.73;;;15.40;26.10;;;;;;5040439;28;20878;-67
2023/06/09 03:17:51;;;;;;;15.40;11.50;;;15.30;26.30;;;;;;5041276;28;20481;-67
2023/06/09 03:20:19;;;;;;;13.10;10.50;;;15.30;26.00;;;;;;5043563;28;20466;-67
2023/06/09 03:22:47;;;;;;;12.83;11.37;;;15.30;26.20;;;;;;5041515;28;21000;-67
2023/06/09 03:25:16;;;;;;;14.50;11.23;;;15.30;26.40;;;;;;5039276;28;20475;-67
2023/06/09 03:27:42;;;;;;;15.23;10.67;;;15.30;26.50;;;;;;5042400;28;20485;-67
2023/06/09 03:30:09;;;;;;;12.47;11.03;;;15.20;27.00;;;;;;5040843;28;20462;-67
2023/06/09 03:32:36;;;;;;;13.77;10.53;;;15.20;27.10;;;;;;5039390;28;20547;-67
2023/06/09 03:35:03;;;;;;;14.57;11.77;;;15.20;27.20;;;;;;5041425;28;20462;-67
2023/06/09 03:37:30;;;;;;;15.40;11.67;;;15.20;27.50;;;;;;5042302;28;20486;-67
2023/06/09 03:39:56;;;;;;;13.70;11.17;;;15.20;27.00;;;;;;5040766;28;20481;-67
2023/06/09 03:42:25;;;;;;;17.03;12.00;;;15.20;27.40;;;;;;5043246;28;20462;-67
2023/06/09 03:44:57;;;;;;;15.07;11.90;;;15.20;27.90;;;;;;5039193;28;20502;-67
2023/06/09 03:47:24;;;;;;;14.37;12.37;;;15.20;28.10;;;;;;5040250;28;20486;-67
2023/06/09 03:49:50;;;;;;;14.60;12.43;;;15.20;27.80;;;;;;5039291;28;20469;-67
2023/06/09 03:52:19;;;;;;;15.83;11.97;;;15.20;27.90;;;;;;5042099;28;20462;-67
2023/06/09 03:54:46;;;;;;;16.07;12.50;;;15.20;27.50;;;;;;5036693;28;20486;-67
2023/06/09 03:57:13;;;;;;;17.57;13.87;;;15.20;28.10;;;;;;5038263;28;20478;-67
2023/06/09 03:59:41;;;;;;;16.30;12.37;;;15.30;27.30;;;;;;5041547;28;20467;-67
2023/06/09 04:02:07;;;;;;;14.27;11.73;;;15.30;27.10;;;;;;5039529;28;20481;-67
2023/06/09 04:04:34;;;;;;;15.90;12.17;;;15.30;27.10;;;;;;5042450;28;20481;-67
2023/06/09 04:07:01;;;;;;;13.87;10.77;;;15.30;27.60;;;;;;5037270;28;21025;-67
2023/06/09 04:09:27;;;;;;;15.93;11.57;;;15.40;27.40;;;;;;5042579;28;20468;-67
2023/06/09 04:11:54;;;;;;;15.07;12.10;;;15.30;27.60;;;;;;5048355;28;20470;-67
2023/06/09 04:14:21;;;;;;;13.10;10.57;;;15.40;27.70;;;;;;5048223;28;20489;-67
2023/06/09 04:16:50;;;;;;;15.67;11.97;;;15.40;27.40;;;;;;5046688;28;20489;-67
2023/06/09 04:19:16;;;;;;;15.80;12.27;;;15.50;27.70;;;;;;5046469;28;20983;-67
2023/06/09 04:21:44;;;;;;;13.80;11.10;;;15.50;27.40;;;;;;5045844;28;20465;-67
2023/06/09 04:24:10;;;;;;;15.07;12.10;;;15.60;27.30;;;;;;5045813;28;20494;-67
2023/06/09 04:26:39;;;;;;;15.50;12.10;;;15.60;27.50;;;;;;5044041;28;20485;-67
2023/06/09 04:29:09;;;;;;;13.83;11.10;;;15.70;27.50;;;;;;5043581;28;20496;-67
2023/06/09 04:31:37;;;;;;;12.13;9.47;;;16.40;27.80;;;;;;5044500;28;20476;-67
2023/06/09 04:34:10;;;;;;;11.57;9.13;;;17.80;24.60;;;;;;5038922;28;20459;-65
2023/06/09 04:36:38;;;;;;;13.70;9.67;;;19.20;20.00;;;;;;5041251;28;20518;-65
2023/06/09 04:39:07;;;;;;;11.40;8.60;;;20.40;16.60;;;;;;5041388;28;20468;-66
2023/06/09 04:41:33;;;;;;;13.83;8.50;;;21.40;13.90;;;;;;5046304;28;20468;-66
2023/06/09 04:44:03;;;;;;;11.63;9.37;;;22.40;11.50;;;;;;5043779;28;20478;-66
2023/06/09 04:46:31;;;;;;;11.53;9.13;;;23.30;9.60;;;;;;5044223;28;20491;-66
2023/06/09 04:48:58;;;;;;;16.50;9.77;;;24.10;7.60;;;;;;5046545;28;20474;-67
2023/06/09 04:51:27;;;;;;;12.37;8.50;;;24.80;6.00;;;;;;5048495;28;20494;-67
2023/06/09 04:53:54;;;;;;;10.37;8.40;;;25.00;5.10;;;;;;5046573;28;20498;-67
2023/06/09 04:56:21;;;;;;;13.37;8.80;;;24.30;5.70;;;;;;5046692;28;21045;-67
2023/06/09 04:58:48;;;;;;;11.53;9.50;;;24.50;6.20;;;;;;5044796;28;20511;-67
2023/06/09 05:01:15;;;;;;;10.97;8.40;;;25.50;4.70;;;;;;5045812;28;20475;-67
2023/06/09 05:03:44;;;;;;;10.10;8.17;;;26.60;2.50;;;;;;5048009;28;20474;-67
2023/06/09 05:06:11;;;;;;;8.93;7.67;;;27.50;1.10;;;;;;5042062;28;20465;-67
2023/06/09 05:08:39;;;;;;;10.47;8.07;;;28.10;1.00;;;;;;5043654;28;20465;-67
2023/06/09 05:11:06;;;;;;;9.30;7.97;;;28.70;1.00;;;;;;5043256;28;20462;-67
2023/06/09 05:13:32;;;;;;;9.27;7.50;;;29.50;1.00;;;;;;5047358;28;20462;-67
2023/06/09 05:15:59;;;;;;;10.30;8.13;;;30.20;1.00;;;;;;5038814;28;20473;-67
2023/06/09 05:18:26;;;;;;;9.13;8.07;;;30.70;1.00;;;;;;5044730;28;20997;-69
2023/06/09 05:20:53;;;;;;;9.53;7.63;;;31.30;1.00;;;;;;5043778;28;20454;-67
2023/06/09 05:23:19;;;;;;;9.50;6.80;;;31.80;1.00;;;;;;5045845;28;20478;-67
2023/06/09 05:25:48;;;;;;;9.73;8.20;;;32.30;1.00;;;;;;5044966;28;21205;-68
2023/06/09 05:28:14;;;;;;;8.43;7.10;;;32.60;1.00;;;;;;5042566;28;20486;-68
2023/06/09 05:30:41;;;;;;;8.33;7.50;;;32.90;1.00;;;;;;5043045;28;20990;-67
2023/06/09 05:33:08;;;;;;;9.00;7.23;;;33.10;1.00;;;;;;5043326;28;20469;-67
2023/06/09 05:35:35;;;;;;;11.83;7.40;;;33.50;1.00;;;;;;5041291;28;20470;-67
2023/06/09 05:38:02;;;;;;;9.67;7.57;;;34.10;1.00;;;;;;5040823;28;20482;-67
2023/06/09 05:40:28;;;;;;;7.70;6.73;;;34.50;1.00;;;;;;5043254;28;20461;-68
2023/06/09 05:42:56;;;;;;;8.53;6.60;;;35.00;1.00;;;;;;5041480;28;20481;-68
2023/06/09 05:45:23;;;;;;;8.40;7.03;;;35.50;1.00;;;;;;5039642;28;20488;-68
2023/06/09 05:47:50;;;;;;;8.23;7.43;;;36.10;1.00;;;;;;5041749;28;21322;-68
2023/06/09 05:50:17;;;;;;;7.80;6.40;;;36.70;1.00;;;;;;5044926;28;20521;-68
2023/06/09 05:52:44;;;;;;;8.37;7.33;;;37.20;1.00;;;;;;5043957;28;20466;-67
2023/06/09 05:55:11;;;;;;;9.27;6.20;;;37.70;1.00;;;;;;5040994;28;20966;-67
2023/06/09 05:57:40;;;;;;;8.23;7.10;;;38.40;1.00;;;;;;5044528;28;20486;-68
2023/06/09 06:00:10;;;;;;;10.23;7.50;;;38.90;1.00;;;;;;5038272;28;20472;-68
2023/06/09 06:02:38;;;;;;;8.13;6.83;;;39.40;1.00;;;;;;5043810;28;20473;-68
2023/06/09 06:05:06;;;;;;;8.07;6.70;;;39.90;1.00;;;;;;5046439;28;21361;-68
2023/06/09 06:07:36;;;;;;;8.93;6.63;;;40.20;1.00;;;;;;5046522;28;20489;-68
2023/06/09 06:10:03;;;;;;;10.97;6.20;;;40.60;1.00;;;;;;5042214;28;20494;-68
2023/06/09 06:12:30;;;;;;;9.10;6.40;;;41.10;1.00;;;;;;5043737;28;20477;-68
2023/06/09 06:14:57;;;;;;;7.00;6.00;;;41.50;1.00;;;;;;5041343;28;20473;-68
2023/06/09 06:17:25;;;;;;;8.03;6.87;;;42.20;1.00;;;;;;5040485;28;20872;-68
2023/06/09 06:19:52;;;;;;;8.67;6.40;;;42.80;1.00;;;;;;5033878;28;20493;-68
2023/06/09 06:22:19;;;;;;;7.83;7.03;;;43.40;1.00;;;;;;5041210;28;20466;-68
2023/06/09 06:24:46;;;;;;;8.17;6.87;;;43.80;1.00;;;;;;5045687;28;21024;-68
2023/06/09 06:27:13;;;;;;;6.40;5.30;;;43.90;1.00;;;;;;5042350;28;20481;-68
2023/06/09 06:29:41;;;;;;;7.20;5.27;;;44.10;1.00;;;;;;5043047;28;20509;-68
2023/06/09 06:32:08;;;;;;;6.53;5.83;;;44.50;1.00;;;;;;5040277;28;21065;-68
2023/06/09 06:34:36;;;;;;;6.70;5.87;;;44.70;1.00;;;;;;5045368;28;20497;-68
2023/06/09 06:37:03;;;;;;;5.63;4.93;;;45.10;1.00;;;;;;5037958;28;20482;-68
2023/06/09 06:39:30;;;;;;;6.10;5.13;;;45.50;1.00;;;;;;5039748;28;20471;-68
2023/06/09 06:41:57;;;;;;;8.37;5.13;;;45.80;1.00;;;;;;5045360;28;20473;-68
2023/06/09 06:44:23;;;;;;;7.53;5.77;;;45.90;1.00;;;;;;5040986;28;20485;-68
2023/06/09 06:46:50;;;;;;;7.43;6.00;;;46.50;1.00;;;;;;5036671;28;21170;-68
2023/06/09 06:49:17;;;;;;;6.03;5.07;;;47.00;1.00;;;;;;5043825;28;20472;-68
2023/06/09 06:51:45;;;;;;;6.50;5.27;;;47.50;1.00;;;;;;5043811;28;20473;-68
2023/06/09 06:54:12;;;;;;;6.93;4.43;;;48.10;1.00;;;;;;5041846;28;20466;-69
2023/06/09 06:56:38;;;;;;;5.77;4.60;;;48.60;1.00;;;;;;5041283;28;20485;-69
2023/06/09 06:59:05;;;;;;;5.77;4.60;;;49.10;1.00;;;;;;5041227;28;20469;-69
2023/06/09 07:01:33;;;;;;;5.13;3.93;;;49.30;1.00;;;;;;5038696;28;20470;-69
2023/06/09 07:04:00;;;;;;;5.97;4.80;;;49.40;1.00;;;;;;5044764;28;20564;-69
2023/06/09 07:06:27;;;;;;;6.10;4.70;;;49.80;1.00;;;;;;5043399;28;20593;-69
2023/06/09 07:08:56;;;;;;;7.77;4.10;;;50.10;1.00;;;;;;5039403;28;20461;-69
2023/06/09 07:11:23;;;;;;;5.63;4.27;;;50.40;1.00;;;;;;5043422;28;21008;-69
2023/06/09 07:13:51;;;;;;;5.27;3.97;;;50.70;1.00;;;;;;5044801;28;20470;-69
2023/06/09 07:16:18;;;;;;;5.03;3.60;;;50.90;1.00;;;;;;5036655;28;20938;-69
2023/06/09 07:18:44;;;;;;;5.20;3.27;;;50.60;1.00;;;;;;5038670;28;20537;-69
2023/06/09 07:21:11;;;;;;;5.30;3.77;;;50.30;1.00;;;;;;5041170;28;20557;-69
2023/06/09 07:23:38;;;;;;;4.70;3.27;;;50.30;1.00;;;;;;5039006;28;20469;-69
2023/06/09 07:26:06;;;;;;;5.83;3.70;;;50.10;1.00;;;;;;5041060;28;20458;-69
2023/06/09 07:28:33;;;;;;;4.50;3.20;;;49.50;1.00;;;;;;5037130;28;20471;-69
2023/06/09 07:31:00;;;;;;;4.50;3.43;;;49.10;1.00;;;;;;5041136;28;20478;-69
2023/06/09 07:33:32;;;;;;;4.70;3.70;;;49.30;1.00;;;;;;5035468;28;20463;-68
2023/06/09 07:35:59;;;;;;;5.00;3.37;;;49.70;1.00;;;;;;5044654;28;20544;-69
2023/06/09 07:38:27;;;;;;;4.63;3.27;;;49.80;1.00;;;;;;5039933;28;20498;-69
2023/06/09 07:40:55;;;;;;;6.13;3.80;;;49.70;1.00;;;;;;5043393;28;20545;-69
2023/06/09 07:43:25;;;;;;;4.43;3.00;;;49.60;1.00;;;;;;5041838;28;21097;-69
2023/06/09 07:45:52;;;;;;;5.10;3.67;;;49.10;1.00;;;;;;5043308;28;21944;-68
2023/06/09 07:48:19;;;;;;;7.90;3.33;;;49.20;1.00;;;;;;5042746;28;20481;-68
2023/06/09 07:50:45;;;;;;;4.90;3.60;;;49.00;1.00;;;;;;5039644;28;20462;-68
2023/06/09 07:53:12;;;;;;;7.33;2.93;;;49.30;1.00;;;;;;5040052;28;20520;-69
2023/06/09 07:55:39;;;;;;;4.67;3.07;;;49.80;1.00;;;;;;5042896;28;20466;-69
2023/06/09 07:58:06;;;;;;;4.33;3.00;;;49.30;1.00;;;;;;5041166;28;20488;-69
2023/06/09 08:00:34;;;;;;;4.27;3.00;;;49.70;1.00;;;;;;5041506;28;20607;-69
2023/06/09 08:03:02;;;;;;;4.27;2.80;;;49.90;1.00;;;;;;5043147;28;20470;-69
2023/06/09 08:05:29;;;;;;;4.50;3.03;;;50.30;1.00;;;;;;5044339;28;21027;-69
2023/06/09 08:07:55;;;;;;;5.10;3.73;;;50.40;1.00;;;;;;5044001;28;20577;-69
2023/06/09 08:10:22;;;;;;;5.40;3.37;;;50.40;1.00;;;;;;5045032;28;20470;-69
2023/06/09 08:12:50;;;;;;;5.27;3.33;;;50.30;1.00;;;;;;5045698;28;20453;-69
2023/06/09 08:15:16;;;;;;;5.53;3.77;;;50.50;1.00;;;;;;5037560;28;20565;-69
2023/06/09 08:17:45;;;;;;;5.23;3.53;;;51.00;1.00;;;;;;5035610;28;20492;-69
2023/06/09 08:20:12;;;;;;;4.90;3.30;;;51.10;1.00;;;;;;5046820;28;20473;-69
2023/06/09 08:22:39;;;;;;;5.80;3.63;;;51.80;1.00;;;;;;5046893;28;20474;-69
2023/06/09 08:25:06;;;;;;;4.60;3.43;;;52.10;1.00;;;;;;5047397;28;20490;-69
2023/06/09 08:27:33;;;;;;;4.93;3.10;;;52.60;1.00;;;;;;5042122;28;20492;-69
2023/06/09 08:30:00;;;;;;;5.10;3.30;;;52.40;1.00;;;;;;5047274;28;20457;-69
2023/06/09 08:32:26;;;;;;;4.27;3.20;;;52.70;1.00;;;;;;5067015;22;20568;-65
2023/06/09 08:34:55;;;;;;;5.77;3.47;;;52.80;1.00;;;;;;5045521;28;20465;-66
2023/06/09 08:37:24;;;;;;;4.50;3.40;;;52.30;1.00;;;;;;5035267;28;20575;-66
2023/06/09 08:39:54;;;;;;;4.67;3.03;;;52.10;1.00;;;;;;5027046;28;20550;-66
2023/06/09 08:42:23;;;;;;;4.10;2.70;;;52.10;1.00;;;;;;5028157;28;20470;-67
2023/06/09 08:44:54;;;;;;;3.93;2.63;;;52.20;1.00;;;;;;5026117;28;21084;-66
2023/06/09 08:47:21;;;;;;;4.53;3.00;;;53.00;1.00;;;;;;5031812;28;20487;-66
2023/06/09 08:49:49;;;;;;;3.77;2.40;;;53.90;1.00;;;;;;5030116;28;20474;-66
2023/06/09 08:52:17;;;;;;;4.07;2.67;;;54.50;1.00;;;;;;5026969;28;20545;-66
2023/06/09 08:54:46;;;;;;;4.10;2.87;;;54.70;1.00;;;;;;5028657;28;20465;-66
2023/06/09 08:57:13;;;;;;;4.10;2.70;;;54.80;1.00;;;;;;5019235;28;20504;-65
2023/06/09 08:59:41;;;;;;;3.80;2.60;;;54.60;1.00;;;;;;5030174;28;20470;-66
2023/06/09 09:02:10;;;;;;;4.20;2.60;;;54.60;1.00;;;;;;5020579;28;20561;-68
2023/06/09 09:04:38;;;;;;;4.37;2.90;;;54.10;1.00;;;;;;5028020;28;20532;-68
2023/06/09 09:07:05;;;;;;;4.57;3.37;;;54.20;1.00;;;;;;5021728;28;20490;-68
2023/06/09 09:09:33;;;;;;;4.67;3.63;;;53.70;1.00;;;;;;5029479;28;20466;-67
2023/06/09 09:12:02;;;;;;;4.40;3.23;;;53.70;1.00;;;;;;5029056;28;20465;-66
2023/06/09 09:14:28;;;;;;;4.70;3.23;;;54.10;1.00;;;;;;5027449;28;20875;-65
2023/06/09 09:16:55;;;;;;;6.37;3.07;;;54.20;1.00;;;;;;5022288;28;20482;-66
2023/06/09 09:19:26;;;;;;;5.40;3.33;;;53.40;1.00;;;;;;5020145;28;20475;-66
2023/06/09 09:21:55;;;;;;;5.10;3.57;;;51.00;1.00;;;;;;5030533;28;20505;-67
2023/06/09 09:24:21;;;;;;;6.47;3.73;;;49.00;1.00;;;;;;5028025;28;20550;-65
2023/06/09 09:26:49;;;;;;;6.30;4.50;;;46.90;1.00;;;;;;5020630;28;21033;-66
2023/06/09 09:29:16;;;;;;;5.17;3.93;;;44.40;1.00;;;;;;5025850;28;20510;-66
2023/06/09 09:31:43;;;;;;;5.60;3.83;;;42.50;1.00;;;;;;5024892;28;20479;-66
2023/06/09 09:34:13;;;;;;;5.63;4.10;;;40.70;1.00;;;;;;5027848;28;20479;-67
2023/06/09 09:36:43;;;;;;;5.63;4.00;;;39.30;1.00;;;;;;5028354;28;20482;-66
2023/06/09 09:39:09;;;;;;;5.20;3.73;;;38.10;1.00;;;;;;5028640;28;20473;-66
2023/06/09 09:41:36;;;;;;;5.10;3.80;;;37.10;1.00;;;;;;5029871;28;20471;-66
2023/06/09 09:44:04;;;;;;;7.63;3.87;;;36.40;1.00;;;;;;5025947;28;20463;-68
2023/06/09 09:46:36;;;;;;;5.43;3.63;;;35.80;1.00;;;;;;5023675;28;20494;-67
2023/06/09 09:49:05;;;;;;;5.37;3.90;;;35.10;1.00;;;;;;5029663;28;20537;-66
2023/06/09 09:51:34;;;;;;;5.70;4.47;;;34.50;1.00;;;;;;5032112;28;20463;-66
2023/06/09 09:54:01;;;;;;;6.50;4.40;;;33.60;1.00;;;;;;5027351;28;20551;-67
2023/06/09 09:56:29;;;;;;;5.93;4.20;;;32.80;1.00;;;;;;5028110;28;20478;-67
2023/06/09 09:58:56;;;;;;;6.20;4.10;;;32.10;1.00;;;;;;5025911;28;20463;-66
2023/06/09 10:01:25;;;;;;;5.20;3.50;;;31.60;1.00;;;;;;5024519;28;20478;-66
2023/06/09 10:03:54;;;;;;;7.63;4.60;;;31.30;1.00;;;;;;5029088;28;20477;-67
2023/06/09 10:06:27;;;;;;;7.23;4.30;;;31.10;1.00;;;;;;5023302;28;20546;-67
2023/06/09 10:08:55;;;;;;;5.53;3.50;;;30.80;1.00;;;;;;5023273;28;20539;-67
2023/06/09 10:11:23;;;;;;;5.60;4.23;;;30.60;1.00;;;;;;5027012;28;20500;-65
2023/06/09 10:13:50;;;;;;;6.70;4.47;;;30.30;1.00;;;;;;5021812;28;20471;-65
2023/06/09 10:16:17;;;;;;;6.70;4.50;;;30.00;1.00;;;;;;5025292;28;21072;-65
2023/06/09 10:18:46;;;;;;;7.00;4.20;;;29.80;1.00;;;;;;5025496;28;20463;-66
2023/06/09 10:21:13;;;;;;;6.10;3.77;;;29.80;1.00;;;;;;5025433;28;20467;-66
2023/06/09 10:23:41;;;;;;;6.40;4.43;;;29.60;1.00;;;;;;5026321;28;20830;-66
2023/06/09 10:26:09;;;;;;;5.60;3.73;;;29.30;1.00;;;;;;5028176;28;20514;-65
2023/06/09 10:28:36;;;;;;;5.37;3.70;;;28.90;1.00;;;;;;5026299;28;20480;-65
2023/06/09 10:31:04;;;;;;;5.70;3.90;;;28.70;1.00;;;;;;5029425;28;20494;-66
2023/06/09 10:33:34;;;;;;;6.50;4.40;;;28.70;1.00;;;;;;5022824;28;20569;-66
2023/06/09 10:36:05;;;;;;;8.30;4.50;;;28.60;1.00;;;;;;5025398;28;21173;-65
2023/06/09 10:38:40;;;;;;;6.40;3.70;;;28.50;1.00;;;;;;5025160;28;20467;-69
2023/06/09 10:41:11;;;;;;;6.17;4.13;;;28.40;1.00;;;;;;5025862;28;20462;-68
2023/06/09 10:43:55;;;;;;;6.40;4.30;;;28.40;1.00;;;;;;5026218;28;20522;-68
2023/06/09 10:46:42;;;;;;;6.80;5.00;;;28.30;1.00;;;;;;5026445;28;20537;-67
2023/06/09 10:49:09;;;;;;;5.90;4.00;;;28.10;1.00;;;;;;5025075;28;20494;-64
2023/06/09 10:51:41;;;;;;;6.67;3.63;;;27.90;1.00;;;;;;5026095;28;20463;-65
2023/06/09 10:54:26;;;;;;;6.57;4.00;;;27.90;1.00;;;;;;5022726;28;20470;-64
2023/06/09 10:56:55;;;;;;;8.13;4.13;;;27.80;1.00;;;;;;5024213;28;20574;-65
2023/06/09 11:02:50;;;;;;;6.23;3.83;;;27.60;1.00;;;;;;5044842;28;20550;-66
2023/06/09 11:05:18;;;;;;;6.40;4.43;;;27.70;1.00;;;;;;5023652;28;20479;-68
2023/06/09 11:07:53;;;;;;;5.87;3.50;;;27.60;1.00;;;;;;5018833;28;20488;-67
2023/06/09 11:10:29;;;;;;;6.10;3.57;;;27.60;1.00;;;;;;5022918;28;20523;-67
2023/06/09 11:12:56;;;;;;;5.90;3.70;;;27.40;1.00;;;;;;5025672;28;20457;-67
2023/06/09 11:15:25;;;;;;;5.83;3.90;;;27.40;1.00;;;;;;5022351;28;20459;-67
2023/06/09 11:17:53;;;;;;;6.70;4.13;;;27.30;1.00;;;;;;5025245;28;20483;-66
2023/06/09 11:20:22;;;;;;;6.30;3.73;;;27.20;1.00;;;;;;5025856;28;20467;-66
2023/06/09 11:23:06;;;;;;;6.20;4.00;;;27.10;1.00;;;;;;5052254;22;20490;-68
2023/06/09 11:25:38;;;;;;;7.10;4.10;;;27.10;1.00;;;;;;5045595;28;20485;-71
2023/06/09 11:28:19;;;;;;;5.90;3.80;;;27.20;1.00;;;;;;5043439;28;20512;-70
2023/06/09 11:31:13;;;;;;;7.67;3.93;;;27.40;1.00;;;;;;5039694;28;20586;-70
2023/06/09 11:33:43;;;;;;;5.63;3.33;;;27.40;1.00;;;;;;5005134;28;20469;-68
2023/06/09 11:36:16;;;;;;;5.47;3.53;;;27.30;1.00;;;;;;5041902;28;21327;-68
2023/06/09 11:38:44;;;;;;;6.10;3.87;;;27.10;1.00;;;;;;5044642;28;20465;-68
2023/06/09 11:41:13;;;;;;;5.90;4.20;;;27.00;1.00;;;;;;5041773;28;20467;-68
2023/06/09 11:43:48;;;;;;;9.33;4.80;;;27.00;1.00;;;;;;5044516;28;20478;-68
2023/06/09 11:46:16;;;;;;;11.17;4.80;;;27.10;1.70;;;;;;5043119;28;20493;-71
2023/06/09 11:49:00;;;;;;;7.73;4.80;;;27.20;1.70;;;;;;5042491;28;20474;-70
2023/06/09 11:51:27;;;;;;;5.40;3.50;;;27.40;1.00;;;;;;5044136;28;20469;-67
2023/06/09 11:53:55;;;;;;;5.93;3.87;;;27.50;1.00;;;;;;5040851;28;20485;-66
2023/06/09 11:56:23;;;;;;;6.50;3.87;;;27.50;1.00;;;;;;5039608;28;20497;-69
2023/06/09 11:58:55;;;;;;;8.20;4.60;;;27.40;1.00;;;;;;5043439;28;20489;-69
2023/06/09 12:01:24;;;;;;;5.30;3.70;;;27.50;1.00;;;;;;5039088;28;20478;-69
2023/06/09 12:03:50;;;;;;;6.23;4.00;;;27.40;1.00;;;;;;5041746;28;20497;-68
2023/06/09 12:06:18;;;;;;;5.50;3.60;;;27.40;1.00;;;;;;5040748;28;20483;-70
2023/06/09 12:08:45;;;;;;;6.83;4.43;;;27.30;1.00;;;;;;5040811;28;20505;-68
2023/06/09 12:11:21;;;;;;;5.77;3.97;;;27.30;1.00;;;;;;5040308;28;20469;-70
2023/06/09 12:13:48;;;;;;;6.47;3.33;;;27.20;1.00;;;;;;5038969;28;20951;-68
2023/06/09 12:16:15;;;;;;;5.57;3.57;;;27.20;1.00;;;;;;5040244;28;20497;-70
2023/06/09 12:18:42;;;;;;;6.30;3.90;;;27.30;1.00;;;;;;5042155;28;20610;-70
2023/06/09 12:21:12;;;;;;;5.33;3.53;;;27.30;1.00;;;;;;5040975;28;20969;-66
2023/06/09 12:23:38;;;;;;;5.80;3.50;;;27.40;1.00;;;;;;5043781;28;20477;-69
2023/06/09 12:26:07;;;;;;;5.70;3.80;;;27.30;1.00;;;;;;5044879;28;20482;-70
2023/06/09 12:28:35;;;;;;;5.77;3.77;;;27.20;1.00;;;;;;5041498;28;20848;-70
2023/06/09 12:31:09;;;;;;;5.90;3.80;;;27.00;1.00;;;;;;5045621;28;20497;-69
2023/06/09 12:33:37;;;;;;;6.90;4.37;;;26.90;1.00;;;;;;5046158;28;20478;-70
2023/06/09 12:36:06;;;;;;;6.50;3.50;;;26.90;1.00;;;;;;5046637;28;20853;-69
2023/06/09 12:38:36;;;;;;;6.30;3.70;;;26.80;1.00;;;;;;5046364;28;20519;-70
2023/06/09 12:41:06;;;;;;;5.80;3.60;;;26.70;1.00;;;;;;5046625;28;20477;-69
2023/06/09 12:43:45;;;;;;;6.70;3.70;;;26.60;1.00;;;;;;5046735;28;20579;-70
2023/06/09 12:46:13;;;;;;;7.83;3.83;;;26.60;1.00;;;;;;5045226;28;20521;-70
2023/06/09 12:48:56;;;;;;;5.50;3.50;;;26.60;1.00;;;;;;5044358;28;20494;-72
2023/06/09 12:51:23;;;;;;;5.77;3.30;;;26.50;1.00;;;;;;5045117;28;20852;-67
2023/06/09 12:53:51;;;;;;;5.47;3.30;;;26.60;1.00;;;;;;5047366;28;20837;-68
2023/06/09 12:56:18;;;;;;;6.50;3.97;;;26.60;1.00;;;;;;5047361;28;21471;-68
2023/06/09 12:58:46;;;;;;;5.53;3.30;;;26.50;1.00;;;;;;5044534;28;20473;-68